This is the latest recevied weather packets stored in our database for station/object KD2SIG. If no packets are shown the sender has not sent any weather packets the latest 10 day(s).
| Time | Temp. | Humidity | Pressure | Rain* | Wind** | Luminosity | Snow |
|---|---|---|---|---|---|---|---|
| 1777951158 | 12.22° C | 75% | 1003.3 hPa | 0 mm | - | 0 W/m² | - |
| 1777950855 | 11.67° C | 77% | 1003.5 hPa | 0 mm | - | 0 W/m² | - |
| 1777950552 | 11.67° C | 80% | 1003.2 hPa | 0 mm | - | 0 W/m² | - |
| 1777950248 | 10.56° C | 83% | 1003.6 hPa | 0 mm | - | 0 W/m² | - |
| 1777949943 | 10.56° C | 83% | 1003.5 hPa | 0 mm | - | 0 W/m² | - |
| 1777949641 | 10.56° C | 82% | 1003.7 hPa | 0 mm | - | 0 W/m² | - |
| 1777949340 | 10.56° C | 83% | 1003.7 hPa | 0 mm | - | 0 W/m² | - |
| 1777949037 | 10.56° C | 82% | 1003.6 hPa | 0 mm | - | 0 W/m² | - |
| 1777948734 | 10.56° C | 82% | 1003.7 hPa | 0 mm | - | 0 W/m² | - |
| 1777948431 | 11.11° C | 81% | 1003.9 hPa | 0 mm | - | 0 W/m² | - |
| 1777948128 | 11.11° C | 81% | 1003.7 hPa | 0 mm | - | 0 W/m² | - |
| 1777947825 | 11.11° C | 81% | 1003.8 hPa | 0 mm | - | 0 W/m² | - |
| 1777947523 | 11.11° C | 81% | 1003.9 hPa | 0 mm | - | 0 W/m² | - |
| 1777947219 | 11.67° C | 80% | 1003.9 hPa | 0 mm | - | 0 W/m² | - |
| 1777946915 | 11.67° C | 80% | 1004.1 hPa | 0 mm | - | 0 W/m² | - |
| 1777946610 | 11.67° C | 80% | 1004.2 hPa | 0 mm | - | 0 W/m² | - |
| 1777946307 | 11.67° C | 78% | 1003.9 hPa | 0 mm | - | 0 W/m² | - |
| 1777946004 | 11.67° C | 77% | 1004.1 hPa | 0 mm | - | 0 W/m² | - |
| 1777945702 | 12.22° C | 76% | 1004.2 hPa | 0 mm | - | 0 W/m² | - |
| 1777945398 | 12.22° C | 75% | 1004.3 hPa | 0 mm | - | 0 W/m² | - |
| 1777945095 | 12.78° C | 75% | 1004 hPa | 0 mm | - | 0 W/m² | - |
| 1777944792 | 12.78° C | 73% | 1004.1 hPa | 0 mm | - | 0 W/m² | - |
| 1777944491 | 12.78° C | 72% | 1004.1 hPa | 0 mm | - | 0 W/m² | - |
| 1777944188 | 13.33° C | 71% | 1004.2 hPa | 0 mm | - | 0 W/m² | - |
| 1777943884 | 13.33° C | 69% | 1004.3 hPa | 0 mm | - | 0 W/m² | - |
* Rain latest hour (hover to see other rain measurements)
** Current wind speed in m/s (hover to see current wind gust speed)